sensor_id;sensor_type;location;lat;lon;timestamp;pressure;altitude;pressure_sealevel;temperature;humidity
34961;BME280;30789;52.030;7.110;2023-05-07T00:00:09;100903.31;;;14.33;86.29
34961;BME280;30789;52.030;7.110;2023-05-07T00:02:36;100902.94;;;14.28;86.34
34961;BME280;30789;52.030;7.110;2023-05-07T00:05:04;100901.38;;;14.27;86.95
34961;BME280;30789;52.030;7.110;2023-05-07T00:07:30;100900.91;;;14.35;86.79
34961;BME280;30789;52.030;7.110;2023-05-07T00:09:57;100903.69;;;14.35;87.29
34961;BME280;30789;52.030;7.110;2023-05-07T00:12:25;100906.38;;;14.46;86.71
34961;BME280;30789;52.030;7.110;2023-05-07T00:14:51;100902.44;;;14.47;86.38
34961;BME280;30789;52.030;7.110;2023-05-07T00:17:18;100912.34;;;14.44;87.09
34961;BME280;30789;52.030;7.110;2023-05-07T00:19:45;100916.34;;;14.40;86.60
34961;BME280;30789;52.030;7.110;2023-05-07T00:22:11;100913.94;;;14.42;87.16
34961;BME280;30789;52.030;7.110;2023-05-07T00:24:38;100917.13;;;14.44;86.71
34961;BME280;30789;52.030;7.110;2023-05-07T00:27:04;100913.97;;;14.38;87.12
34961;BME280;30789;52.030;7.110;2023-05-07T00:29:32;100908.47;;;14.35;87.38
34961;BME280;30789;52.030;7.110;2023-05-07T00:31:59;100915.16;;;14.41;87.46
34961;BME280;30789;52.030;7.110;2023-05-07T00:34:26;100903.22;;;14.47;86.94
34961;BME280;30789;52.030;7.110;2023-05-07T00:36:52;100911.53;;;14.47;86.87
34961;BME280;30789;52.030;7.110;2023-05-07T00:39:18;100911.53;;;14.51;86.95
34961;BME280;30789;52.030;7.110;2023-05-07T00:41:45;100905.22;;;14.43;86.96
34961;BME280;30789;52.030;7.110;2023-05-07T00:44:12;100905.22;;;14.47;87.22
34961;BME280;30789;52.030;7.110;2023-05-07T00:46:40;100908.81;;;14.40;86.95
34961;BME280;30789;52.030;7.110;2023-05-07T00:49:07;100908.81;;;14.44;87.37
34961;BME280;30789;52.030;7.110;2023-05-07T00:51:33;100908.34;;;14.49;86.87
34961;BME280;30789;52.030;7.110;2023-05-07T00:54:01;100900.41;;;14.54;86.85
34961;BME280;30789;52.030;7.110;2023-05-07T00:56:28;100896.44;;;14.52;86.49
34961;BME280;30789;52.030;7.110;2023-05-07T00:58:55;100900.00;;;14.56;86.80
34961;BME280;30789;52.030;7.110;2023-05-07T01:01:22;100894.13;;;14.47;87.42
34961;BME280;30789;52.030;7.110;2023-05-07T01:03:50;100898.88;;;14.43;87.24
34961;BME280;30789;52.030;7.110;2023-05-07T01:06:17;100899.69;;;14.40;87.79
34961;BME280;30789;52.030;7.110;2023-05-07T01:08:44;100897.31;;;14.38;87.29
34961;BME280;30789;52.030;7.110;2023-05-07T01:11:11;100890.22;;;14.37;87.47
34961;BME280;30789;52.030;7.110;2023-05-07T01:13:38;100889.81;;;14.39;87.64
34961;BME280;30789;52.030;7.110;2023-05-07T01:16:06;100894.13;;;14.43;87.55
34961;BME280;30789;52.030;7.110;2023-05-07T01:18:32;100881.50;;;14.39;87.83
34961;BME280;30789;52.030;7.110;2023-05-07T01:21:01;100875.13;;;14.42;87.67
34961;BME280;30789;52.030;7.110;2023-05-07T01:23:33;100881.06;;;14.44;87.38
34961;BME280;30789;52.030;7.110;2023-05-07T01:26:00;100883.47;;;14.38;86.91
34961;BME280;30789;52.030;7.110;2023-05-07T01:28:26;100877.56;;;14.29;88.06
34961;BME280;30789;52.030;7.110;2023-05-07T01:30:54;100874.00;;;14.29;87.72
34961;BME280;30789;52.030;7.110;2023-05-07T01:33:22;100872.78;;;14.37;87.66
34961;BME280;30789;52.030;7.110;2023-05-07T01:35:52;100876.34;;;14.37;87.76
34961;BME280;30789;52.030;7.110;2023-05-07T01:38:21;100874.81;;;14.29;87.78
34961;BME280;30789;52.030;7.110;2023-05-07T01:40:50;100871.63;;;14.34;87.97
34961;BME280;30789;52.030;7.110;2023-05-07T01:43:17;100869.22;;;14.36;87.12
34961;BME280;30789;52.030;7.110;2023-05-07T01:45:44;100870.38;;;14.42;86.90
34961;BME280;30789;52.030;7.110;2023-05-07T01:48:11;100874.34;;;14.41;86.97
34961;BME280;30789;52.030;7.110;2023-05-07T01:50:39;100874.34;;;14.41;86.43
34961;BME280;30789;52.030;7.110;2023-05-07T01:53:06;100874.00;;;14.29;87.23
34961;BME280;30789;52.030;7.110;2023-05-07T01:55:32;100873.59;;;14.34;87.62
34961;BME280;30789;52.030;7.110;2023-05-07T01:58:00;100873.09;;;14.53;86.14
34961;BME280;30789;52.030;7.110;2023-05-07T02:00:27;100875.13;;;14.42;86.41
34961;BME280;30789;52.030;7.110;2023-05-07T02:02:54;100875.53;;;14.44;86.04
34961;BME280;30789;52.030;7.110;2023-05-07T02:05:20;100885.81;;;14.47;86.29
34961;BME280;30789;52.030;7.110;2023-05-07T02:07:47;100885.34;;;14.55;84.90
34961;BME280;30789;52.030;7.110;2023-05-07T02:10:13;100887.44;;;14.37;86.01
34961;BME280;30789;52.030;7.110;2023-05-07T02:12:40;100891.81;;;14.35;85.93
34961;BME280;30789;52.030;7.110;2023-05-07T02:15:10;100885.47;;;14.38;85.87
34961;BME280;30789;52.030;7.110;2023-05-07T02:17:39;100887.03;;;14.39;86.12
34961;BME280;30789;52.030;7.110;2023-05-07T02:20:23;100887.78;;;14.46;85.25
34961;BME280;30789;52.030;7.110;2023-05-07T02:22:50;100882.31;;;14.29;86.26
34961;BME280;30789;52.030;7.110;2023-05-07T02:25:16;100878.38;;;14.30;85.50
34961;BME280;30789;52.030;7.110;2023-05-07T02:27:43;100874.38;;;14.34;85.75
34961;BME280;30789;52.030;7.110;2023-05-07T02:30:11;100868.06;;;14.30;85.93
34961;BME280;30789;52.030;7.110;2023-05-07T02:32:38;100874.41;;;14.27;85.53
34961;BME280;30789;52.030;7.110;2023-05-07T02:35:05;100879.97;;;14.20;85.86
34961;BME280;30789;52.030;7.110;2023-05-07T02:37:31;100876.03;;;14.25;84.64
34961;BME280;30789;52.030;7.110;2023-05-07T02:39:58;100876.03;;;14.25;84.72
34961;BME280;30789;52.030;7.110;2023-05-07T02:42:24;100873.28;;;14.11;85.58
34961;BME280;30789;52.030;7.110;2023-05-07T02:44:51;100880.38;;;14.22;84.54
34961;BME280;30789;52.030;7.110;2023-05-07T02:47:19;100873.25;;;14.28;83.35
34961;BME280;30789;52.030;7.110;2023-05-07T02:49:45;100876.47;;;14.13;84.36
34961;BME280;30789;52.030;7.110;2023-05-07T02:52:12;100874.91;;;14.05;84.93
34961;BME280;30789;52.030;7.110;2023-05-07T02:54:38;100872.13;;;14.12;84.18
34961;BME280;30789;52.030;7.110;2023-05-07T02:57:05;100875.31;;;14.03;83.86
34961;BME280;30789;52.030;7.110;2023-05-07T02:59:31;100872.97;;;13.95;84.24
34961;BME280;30789;52.030;7.110;2023-05-07T03:01:58;100876.56;;;13.92;84.28
34961;BME280;30789;52.030;7.110;2023-05-07T03:04:26;100869.81;;;13.89;84.18
34961;BME280;30789;52.030;7.110;2023-05-07T03:06:52;100874.94;;;13.98;83.84
34961;BME280;30789;52.030;7.110;2023-05-07T03:09:19;100868.97;;;14.03;83.14
34961;BME280;30789;52.030;7.110;2023-05-07T03:11:46;100870.66;;;13.83;84.08
34961;BME280;30789;52.030;7.110;2023-05-07T03:14:13;100870.63;;;13.90;83.67
34961;BME280;30789;52.030;7.110;2023-05-07T03:16:39;100876.56;;;13.85;83.96
34961;BME280;30789;52.030;7.110;2023-05-07T03:19:05;100875.44;;;13.68;83.98
34961;BME280;30789;52.030;7.110;2023-05-07T03:21:33;100879.41;;;13.67;84.13
34961;BME280;30789;52.030;7.110;2023-05-07T03:24:00;100877.81;;;13.66;84.58
34961;BME280;30789;52.030;7.110;2023-05-07T03:26:26;100878.25;;;13.57;85.26
34961;BME280;30789;52.030;7.110;2023-05-07T03:28:53;100886.16;;;13.59;85.30
34961;BME280;30789;52.030;7.110;2023-05-07T03:31:20;100875.50;;;13.50;85.27
34961;BME280;30789;52.030;7.110;2023-05-07T03:33:50;100880.63;;;13.59;84.43
34961;BME280;30789;52.030;7.110;2023-05-07T03:36:18;100877.84;;;13.55;84.65
34961;BME280;30789;52.030;7.110;2023-05-07T03:38:46;100879.06;;;13.51;85.54
34961;BME280;30789;52.030;7.110;2023-05-07T03:41:12;100885.41;;;13.51;84.71
34961;BME280;30789;52.030;7.110;2023-05-07T03:43:39;100889.34;;;13.40;85.55
34961;BME280;30789;52.030;7.110;2023-05-07T03:46:05;100883.78;;;13.54;85.14
34961;BME280;30789;52.030;7.110;2023-05-07T03:48:32;100887.38;;;13.54;84.69
34961;BME280;30789;52.030;7.110;2023-05-07T03:50:59;100881.47;;;13.45;84.33
34961;BME280;30789;52.030;7.110;2023-05-07T03:53:25;100890.13;;;13.47;84.63
34961;BME280;30789;52.030;7.110;2023-05-07T03:55:53;100888.59;;;13.29;85.23
34961;BME280;30789;52.030;7.110;2023-05-07T03:58:20;100897.66;;;13.43;84.25
34961;BME280;30789;52.030;7.110;2023-05-07T04:00:46;100907.94;;;13.43;84.80
34961;BME280;30789;52.030;7.110;2023-05-07T04:03:13;100904.78;;;13.51;83.56
34961;BME280;30789;52.030;7.110;2023-05-07T04:05:40;100903.56;;;13.49;84.34
34961;BME280;30789;52.030;7.110;2023-05-07T04:08:07;100893.72;;;13.41;84.34
34961;BME280;30789;52.030;7.110;2023-05-07T04:10:33;100892.94;;;13.40;84.46
34961;BME280;30789;52.030;7.110;2023-05-07T04:13:01;100895.69;;;13.44;83.86
34961;BME280;30789;52.030;7.110;2023-05-07T04:15:28;100895.69;;;13.44;84.07
34961;BME280;30789;52.030;7.110;2023-05-07T04:17:54;100904.41;;;13.39;83.49
34961;BME280;30789;52.030;7.110;2023-05-07T04:20:21;100905.22;;;13.22;84.53
34961;BME280;30789;52.030;7.110;2023-05-07T04:22:47;100894.94;;;13.26;83.70
34961;BME280;30789;52.030;7.110;2023-05-07T04:25:15;100896.13;;;13.18;84.75
34961;BME280;30789;52.030;7.110;2023-05-07T04:27:42;100895.31;;;13.14;85.10
34961;BME280;30789;52.030;7.110;2023-05-07T04:30:11;100900.88;;;13.17;85.40
34961;BME280;30789;52.030;7.110;2023-05-07T04:32:38;100894.94;;;13.19;84.84
34961;BME280;30789;52.030;7.110;2023-05-07T04:35:05;100896.13;;;13.18;84.61
34961;BME280;30789;52.030;7.110;2023-05-07T04:37:32;100888.59;;;13.39;83.95
34961;BME280;30789;52.030;7.110;2023-05-07T04:39:58;100884.22;;;13.38;83.67
34961;BME280;30789;52.030;7.110;2023-05-07T04:42:25;100888.94;;;13.59;81.88
34961;BME280;30789;52.030;7.110;2023-05-07T04:44:53;100894.91;;;13.36;83.05
34961;BME280;30789;52.030;7.110;2023-05-07T04:47:21;100890.97;;;13.37;83.16
34961;BME280;30789;52.030;7.110;2023-05-07T04:49:47;100895.69;;;13.37;83.14
34961;BME280;30789;52.030;7.110;2023-05-07T04:52:14;100897.25;;;13.41;83.21
34961;BME280;30789;52.030;7.110;2023-05-07T04:54:40;100900.06;;;13.31;83.79
34961;BME280;30789;52.030;7.110;2023-05-07T04:57:07;100906.38;;;13.31;84.52
34961;BME280;30789;52.030;7.110;2023-05-07T04:59:33;100902.84;;;13.13;85.10
34961;BME280;30789;52.030;7.110;2023-05-07T05:02:00;100902.41;;;13.32;84.54
34961;BME280;30789;52.030;7.110;2023-05-07T05:04:28;100911.09;;;13.55;82.80
34961;BME280;30789;52.030;7.110;2023-05-07T05:06:54;100901.19;;;13.61;82.46
34961;BME280;30789;52.030;7.110;2023-05-07T05:09:21;100917.81;;;13.54;83.27
34961;BME280;30789;52.030;7.110;2023-05-07T05:11:47;100911.88;;;13.52;83.75
34961;BME280;30789;52.030;7.110;2023-05-07T05:14:14;100920.63;;;13.44;84.05
34961;BME280;30789;52.030;7.110;2023-05-07T05:16:40;100927.72;;;13.48;83.68
34961;BME280;30789;52.030;7.110;2023-05-07T05:19:06;100927.31;;;13.46;83.62
34961;BME280;30789;52.030;7.110;2023-05-07T05:21:34;100929.66;;;13.65;82.86
34961;BME280;30789;52.030;7.110;2023-05-07T05:24:01;100927.69;;;13.55;83.33
34961;BME280;30789;52.030;7.110;2023-05-07T05:26:27;100928.03;;;13.82;82.42
34961;BME280;30789;52.030;7.110;2023-05-07T05:28:54;100925.31;;;13.71;82.26
34961;BME280;30789;52.030;7.110;2023-05-07T05:31:20;100929.72;;;13.41;83.85
34961;BME280;30789;52.030;7.110;2023-05-07T05:33:47;100935.63;;;13.43;83.62
34961;BME280;30789;52.030;7.110;2023-05-07T05:36:14;100941.19;;;13.53;83.63
34961;BME280;30789;52.030;7.110;2023-05-07T05:38:41;100947.06;;;13.73;82.87
34961;BME280;30789;52.030;7.110;2023-05-07T05:41:09;100938.31;;;13.85;81.88
34961;BME280;30789;52.030;7.110;2023-05-07T05:43:35;100941.09;;;13.82;82.90
34961;BME280;30789;52.030;7.110;2023-05-07T05:46:02;100943.00;;;14.02;81.59
34961;BME280;30789;52.030;7.110;2023-05-07T05:48:30;100941.09;;;13.82;82.65
34961;BME280;30789;52.030;7.110;2023-05-07T05:50:56;100946.94;;;14.12;80.50
34961;BME280;30789;52.030;7.110;2023-05-07T05:53:23;100947.00;;;13.98;81.24
34961;BME280;30789;52.030;7.110;2023-05-07T05:55:51;100949.75;;;13.94;81.52
34961;BME280;30789;52.030;7.110;2023-05-07T05:58:18;100950.53;;;14.02;81.45
34961;BME280;30789;52.030;7.110;2023-05-07T06:00:46;100951.28;;;14.09;80.75
34961;BME280;30789;52.030;7.110;2023-05-07T06:03:13;100952.44;;;14.19;80.56
34961;BME280;30789;52.030;7.110;2023-05-07T06:05:40;100956.03;;;14.12;81.36
34961;BME280;30789;52.030;7.110;2023-05-07T06:08:06;100953.25;;;14.12;81.81
34961;BME280;30789;52.030;7.110;2023-05-07T06:10:33;100952.03;;;14.31;81.04
34961;BME280;30789;52.030;7.110;2023-05-07T06:13:00;100955.59;;;14.31;80.70
34961;BME280;30789;52.030;7.110;2023-05-07T06:15:27;100951.97;;;14.41;81.09
34961;BME280;30789;52.030;7.110;2023-05-07T06:17:53;100959.94;;;14.39;81.42
34961;BME280;30789;52.030;7.110;2023-05-07T06:20:22;100964.59;;;14.53;80.12
34961;BME280;30789;52.030;7.110;2023-05-07T06:22:49;100971.31;;;14.55;79.49
34961;BME280;30789;52.030;7.110;2023-05-07T06:25:15;100973.34;;;14.44;80.99
34961;BME280;30789;52.030;7.110;2023-05-07T06:27:42;100973.41;;;14.37;81.47
34961;BME280;30789;52.030;7.110;2023-05-07T06:30:10;100974.53;;;14.47;81.13
34961;BME280;30789;52.030;7.110;2023-05-07T06:32:37;100981.59;;;14.65;81.14
34961;BME280;30789;52.030;7.110;2023-05-07T06:35:04;100973.19;;;14.76;79.78
34961;BME280;30789;52.030;7.110;2023-05-07T06:37:30;100979.09;;;14.81;80.13
34961;BME280;30789;52.030;7.110;2023-05-07T06:39:57;100975.81;;;14.97;79.36
34961;BME280;30789;52.030;7.110;2023-05-07T06:42:23;100978.91;;;15.09;79.24
34961;BME280;30789;52.030;7.110;2023-05-07T06:44:50;100982.00;;;15.22;78.46
34961;BME280;30789;52.030;7.110;2023-05-07T06:47:18;100988.63;;;15.38;77.70
34961;BME280;30789;52.030;7.110;2023-05-07T06:49:44;100982.56;;;15.51;76.94
34961;BME280;30789;52.030;7.110;2023-05-07T06:52:11;100980.13;;;15.56;77.22
34961;BME280;30789;52.030;7.110;2023-05-07T06:54:37;100982.44;;;15.65;77.30
34961;BME280;30789;52.030;7.110;2023-05-07T06:57:04;100993.66;;;15.91;74.80
34961;BME280;30789;52.030;7.110;2023-05-07T06:59:30;100988.28;;;15.77;75.76
34961;BME280;30789;52.030;7.110;2023-05-07T07:01:57;100987.06;;;15.78;75.97
34961;BME280;30789;52.030;7.110;2023-05-07T07:04:24;100986.38;;;16.04;75.01
34961;BME280;30789;52.030;7.110;2023-05-07T07:06:52;100990.63;;;15.79;74.80
34961;BME280;30789;52.030;7.110;2023-05-07T07:09:18;100990.16;;;15.84;75.33
34961;BME280;30789;52.030;7.110;2023-05-07T07:11:45;100986.72;;;15.73;76.22
34961;BME280;30789;52.030;7.110;2023-05-07T07:14:11;100989.75;;;15.85;76.05
34961;BME280;30789;52.030;7.110;2023-05-07T07:16:38;101001.59;;;15.93;75.32
34961;BME280;30789;52.030;7.110;2023-05-07T07:19:05;100998.59;;;15.77;76.91
34961;BME280;30789;52.030;7.110;2023-05-07T07:21:32;101001.53;;;16.00;76.21
34961;BME280;30789;52.030;7.110;2023-05-07T07:23:59;100998.31;;;16.05;77.18
34961;BME280;30789;52.030;7.110;2023-05-07T07:26:25;100994.13;;;16.23;75.83
34961;BME280;30789;52.030;7.110;2023-05-07T07:28:52;101000.88;;;16.22;75.00
34961;BME280;30789;52.030;7.110;2023-05-07T07:31:18;100994.16;;;16.20;75.60
34961;BME280;30789;52.030;7.110;2023-05-07T07:33:45;100996.78;;;16.34;74.49
34961;BME280;30789;52.030;7.110;2023-05-07T07:36:11;100998.63;;;16.47;73.45
34961;BME280;30789;52.030;7.110;2023-05-07T07:38:39;101001.63;;;16.26;75.19
34961;BME280;30789;52.030;7.110;2023-05-07T07:41:08;101003.88;;;16.38;74.30
34961;BME280;30789;52.030;7.110;2023-05-07T07:43:34;101002.66;;;16.39;74.41
34961;BME280;30789;52.030;7.110;2023-05-07T07:46:01;101004.97;;;16.78;72.23
34961;BME280;30789;52.030;7.110;2023-05-07T07:48:28;100997.13;;;16.69;72.59
34961;BME280;30789;52.030;7.110;2023-05-07T07:50:54;101002.22;;;16.74;72.20
34961;BME280;30789;52.030;7.110;2023-05-07T07:53:21;101002.69;;;16.69;72.97
34961;BME280;30789;52.030;7.110;2023-05-07T07:55:49;101001.38;;;16.77;73.15
34961;BME280;30789;52.030;7.110;2023-05-07T07:58:15;100995.84;;;16.74;72.19
34961;BME280;30789;52.030;7.110;2023-05-07T08:00:41;101002.91;;;16.82;72.11
34961;BME280;30789;52.030;7.110;2023-05-07T08:03:09;100998.16;;;16.82;72.17
34961;BME280;30789;52.030;7.110;2023-05-07T08:05:35;100999.41;;;16.78;71.88
34961;BME280;30789;52.030;7.110;2023-05-07T08:08:04;100997.94;;;16.66;72.64
34961;BME280;30789;52.030;7.110;2023-05-07T08:10:31;100994.78;;;16.94;71.57
34961;BME280;30789;52.030;7.110;2023-05-07T08:13:01;101001.97;;;17.19;70.78
34961;BME280;30789;52.030;7.110;2023-05-07T08:15:28;100995.78;;;17.08;72.06
34961;BME280;30789;52.030;7.110;2023-05-07T08:17:55;101002.78;;;17.42;70.43
34961;BME280;30789;52.030;7.110;2023-05-07T08:20:22;101006.47;;;17.36;70.51
34961;BME280;30789;52.030;7.110;2023-05-07T08:22:49;101012.47;;;17.34;70.44
34961;BME280;30789;52.030;7.110;2023-05-07T08:25:15;101011.16;;;17.16;72.57
34961;BME280;30789;52.030;7.110;2023-05-07T08:27:41;101011.47;;;17.48;70.40
34961;BME280;30789;52.030;7.110;2023-05-07T08:30:12;101011.16;;;17.42;70.42
34961;BME280;30789;52.030;7.110;2023-05-07T08:32:39;101014.81;;;17.62;69.52
34961;BME280;30789;52.030;7.110;2023-05-07T08:35:06;101009.78;;;17.54;69.67
34961;BME280;30789;52.030;7.110;2023-05-07T08:37:32;101013.25;;;17.61;70.07
34961;BME280;30789;52.030;7.110;2023-05-07T08:39:59;101009.78;;;17.54;71.02
34961;BME280;30789;52.030;7.110;2023-05-07T08:42:27;101019.59;;;17.62;71.09
34961;BME280;30789;52.030;7.110;2023-05-07T08:44:57;101017.78;;;17.75;67.92
34961;BME280;30789;52.030;7.110;2023-05-07T08:47:30;101011.97;;;17.66;68.38
34961;BME280;30789;52.030;7.110;2023-05-07T08:50:00;101011.97;;;17.66;68.13
34961;BME280;30789;52.030;7.110;2023-05-07T08:52:27;101016.16;;;17.77;67.77
34961;BME280;30789;52.030;7.110;2023-05-07T08:54:53;101020.59;;;17.75;69.15
34961;BME280;30789;52.030;7.110;2023-05-07T08:57:20;101019.06;;;17.93;68.74
34961;BME280;30789;52.030;7.110;2023-05-07T08:59:48;101019.13;;;18.09;67.87
34961;BME280;30789;52.030;7.110;2023-05-07T09:02:15;101020.03;;;18.03;68.92
34961;BME280;30789;52.030;7.110;2023-05-07T09:04:44;101010.06;;;18.25;68.40
34961;BME280;30789;52.030;7.110;2023-05-07T09:07:11;101013.41;;;18.39;67.48
34961;BME280;30789;52.030;7.110;2023-05-07T09:09:37;101016.09;;;18.43;66.82
34961;BME280;30789;52.030;7.110;2023-05-07T09:12:04;101023.75;;;18.58;67.65
34961;BME280;30789;52.030;7.110;2023-05-07T09:14:30;101018.34;;;18.87;65.83
34961;BME280;30789;52.030;7.110;2023-05-07T09:16:57;101005.53;;;18.90;65.52
34961;BME280;30789;52.030;7.110;2023-05-07T09:19:24;101015.41;;;18.94;64.96
34961;BME280;30789;52.030;7.110;2023-05-07T09:21:58;101019.63;;;19.02;65.68
34961;BME280;30789;52.030;7.110;2023-05-07T09:24:26;101018.88;;;18.98;64.94
34961;BME280;30789;52.030;7.110;2023-05-07T09:26:53;101020.81;;;18.46;66.98
34961;BME280;30789;52.030;7.110;2023-05-07T09:29:20;101018.19;;;18.94;66.62
34961;BME280;30789;52.030;7.110;2023-05-07T09:31:47;101014.59;;;19.45;64.73
34961;BME280;30789;52.030;7.110;2023-05-07T09:34:13;101018.28;;;19.58;63.81
34961;BME280;30789;52.030;7.110;2023-05-07T09:36:40;101028.53;;;19.93;63.14
34961;BME280;30789;52.030;7.110;2023-05-07T09:39:08;101039.50;;;19.88;63.77
34961;BME280;30789;52.030;7.110;2023-05-07T09:41:43;101033.00;;;19.91;62.62
34961;BME280;30789;52.030;7.110;2023-05-07T09:44:10;101037.69;;;20.10;61.22
34961;BME280;30789;52.030;7.110;2023-05-07T09:46:39;101028.25;;;20.04;61.43
34961;BME280;30789;52.030;7.110;2023-05-07T09:49:12;101030.78;;;20.14;62.06
34961;BME280;30789;52.030;7.110;2023-05-07T09:51:45;101031.31;;;20.09;61.23
34961;BME280;30789;52.030;7.110;2023-05-07T09:54:14;101028.50;;;20.25;60.61
34961;BME280;30789;52.030;7.110;2023-05-07T09:56:42;101034.56;;;20.08;61.80
34961;BME280;30789;52.030;7.110;2023-05-07T09:59:12;101036.88;;;20.25;61.63
34961;BME280;30789;52.030;7.110;2023-05-07T10:01:41;101030.44;;;20.12;61.56
34961;BME280;30789;52.030;7.110;2023-05-07T10:04:08;101030.88;;;20.11;61.12
34961;BME280;30789;52.030;7.110;2023-05-07T10:06:38;101031.41;;;20.06;61.89
34961;BME280;30789;52.030;7.110;2023-05-07T10:09:05;101029.91;;;20.46;60.85
34961;BME280;30789;52.030;7.110;2023-05-07T10:11:33;101031.09;;;20.74;59.98
34961;BME280;30789;52.030;7.110;2023-05-07T10:14:00;101035.22;;;20.57;60.21
34961;BME280;30789;52.030;7.110;2023-05-07T10:16:29;101038.78;;;20.98;58.08
34961;BME280;30789;52.030;7.110;2023-05-07T10:18:58;101031.63;;;21.35;57.84
34961;BME280;30789;52.030;7.110;2023-05-07T10:21:27;101035.31;;;21.32;58.81
34961;BME280;30789;52.030;7.110;2023-05-07T10:23:59;101034.44;;;21.35;58.64
34961;BME280;30789;52.030;7.110;2023-05-07T10:26:29;101037.63;;;21.58;58.82
34961;BME280;30789;52.030;7.110;2023-05-07T10:28:59;101035.72;;;21.80;58.16
34961;BME280;30789;52.030;7.110;2023-05-07T10:31:41;101038.72;;;21.86;57.64
34961;BME280;30789;52.030;7.110;2023-05-07T10:34:09;101034.06;;;21.58;57.74
34961;BME280;30789;52.030;7.110;2023-05-07T10:36:37;101033.34;;;21.91;56.29
34961;BME280;30789;52.030;7.110;2023-05-07T10:39:05;101042.22;;;21.90;56.64
34961;BME280;30789;52.030;7.110;2023-05-07T10:41:33;101039.28;;;22.49;54.16
34961;BME280;30789;52.030;7.110;2023-05-07T10:44:00;101042.72;;;22.10;56.65
34961;BME280;30789;52.030;7.110;2023-05-07T10:46:27;101034.19;;;22.57;54.49
34961;BME280;30789;52.030;7.110;2023-05-07T10:49:07;101040.78;;;22.20;56.18
34961;BME280;30789;52.030;7.110;2023-05-07T10:51:39;101038.13;;;22.59;53.83
34961;BME280;30789;52.030;7.110;2023-05-07T10:54:19;101033.97;;;22.94;53.15
34961;BME280;30789;52.030;7.110;2023-05-07T10:56:47;101034.97;;;22.79;54.49
34961;BME280;30789;52.030;7.110;2023-05-07T10:59:34;101043.38;;;22.36;54.83
34961;BME280;30789;52.030;7.110;2023-05-07T11:02:07;101042.69;;;22.44;54.75
34961;BME280;30789;52.030;7.110;2023-05-07T11:04:36;101045.91;;;22.55;53.01
34961;BME280;30789;52.030;7.110;2023-05-07T11:10:04;101035.34;;;21.91;55.43
34961;BME280;30789;52.030;7.110;2023-05-07T11:12:53;101038.97;;;22.47;54.75
34961;BME280;30789;52.030;7.110;2023-05-07T11:15:41;101030.91;;;23.10;52.29
34961;BME280;30789;52.030;7.110;2023-05-07T11:18:10;101036.31;;;23.66;50.92
34961;BME280;30789;52.030;7.110;2023-05-07T11:20:50;101032.75;;;23.93;52.23
34961;BME280;30789;52.030;7.110;2023-05-07T11:24:08;101030.25;;;24.67;49.07
34961;BME280;30789;52.030;7.110;2023-05-07T11:26:44;101036.38;;;25.58;46.79
34961;BME280;30789;52.030;7.110;2023-05-07T11:29:12;101032.53;;;25.93;46.71
34961;BME280;30789;52.030;7.110;2023-05-07T11:31:50;101031.44;;;25.91;44.91
34961;BME280;30789;52.030;7.110;2023-05-07T11:34:21;101032.97;;;25.77;45.37
34961;BME280;30789;52.030;7.110;2023-05-07T11:36:48;101024.97;;;25.52;45.51
34961;BME280;30789;52.030;7.110;2023-05-07T11:39:28;101028.31;;;25.00;47.28
34961;BME280;30789;52.030;7.110;2023-05-07T11:41:55;101034.66;;;25.18;46.41
34961;BME280;30789;52.030;7.110;2023-05-07T11:44:21;101038.38;;;24.56;47.39
34961;BME280;30789;52.030;7.110;2023-05-07T11:46:49;101034.47;;;24.80;48.65
34961;BME280;30789;52.030;7.110;2023-05-07T11:49:16;101036.09;;;25.14;47.98
34961;BME280;30789;52.030;7.110;2023-05-07T11:51:43;101025.72;;;25.20;46.50
34961;BME280;30789;52.030;7.110;2023-05-07T11:54:15;101027.06;;;24.92;46.93
34961;BME280;30789;52.030;7.110;2023-05-07T11:56:43;101034.13;;;25.38;45.51
34961;BME280;30789;52.030;7.110;2023-05-07T11:59:10;101033.00;;;25.03;45.42
34961;BME280;30789;52.030;7.110;2023-05-07T12:01:36;101039.31;;;25.31;45.27
34961;BME280;30789;52.030;7.110;2023-05-07T12:04:04;101040.34;;;25.00;45.87
34961;BME280;30789;52.030;7.110;2023-05-07T12:06:31;101044.59;;;24.96;45.34
34961;BME280;30789;52.030;7.110;2023-05-07T12:09:02;101032.03;;;24.37;48.68
34961;BME280;30789;52.030;7.110;2023-05-07T12:11:29;101032.78;;;24.11;50.03
34961;BME280;30789;52.030;7.110;2023-05-07T12:13:55;101033.25;;;24.27;49.63
34961;BME280;30789;52.030;7.110;2023-05-07T12:16:23;101035.75;;;24.61;46.21
34961;BME280;30789;52.030;7.110;2023-05-07T12:18:50;101035.25;;;24.63;46.59
34961;BME280;30789;52.030;7.110;2023-05-07T12:21:19;101039.66;;;24.73;48.81
34961;BME280;30789;52.030;7.110;2023-05-07T12:23:46;101035.47;;;25.10;48.19
34961;BME280;30789;52.030;7.110;2023-05-07T12:26:13;101026.63;;;25.26;47.31
34961;BME280;30789;52.030;7.110;2023-05-07T12:28:39;101028.41;;;25.80;47.02
34961;BME280;30789;52.030;7.110;2023-05-07T12:31:06;101026.41;;;25.95;47.00
34961;BME280;30789;52.030;7.110;2023-05-07T12:33:34;101033.47;;;26.37;44.21
34961;BME280;30789;52.030;7.110;2023-05-07T12:36:03;101034.47;;;26.11;44.70
34961;BME280;30789;52.030;7.110;2023-05-07T12:38:36;101035.03;;;26.00;45.11
34961;BME280;30789;52.030;7.110;2023-05-07T12:41:04;101033.91;;;25.98;43.58
34961;BME280;30789;52.030;7.110;2023-05-07T12:43:32;101024.13;;;25.84;43.31
34961;BME280;30789;52.030;7.110;2023-05-07T12:46:01;101030.56;;;25.85;43.09
34961;BME280;30789;52.030;7.110;2023-05-07T12:48:28;101031.34;;;25.85;43.63
34961;BME280;30789;52.030;7.110;2023-05-07T12:50:55;101036.00;;;25.65;44.14
34961;BME280;30789;52.030;7.110;2023-05-07T12:53:24;101038.59;;;25.54;44.19
34961;BME280;30789;52.030;7.110;2023-05-07T12:55:53;101035.53;;;25.43;44.17